Time;durP1;ratioP1;P1;durP2;ratioP2;P2;SDS_P1;SDS_P2;PMS_P1;PMS_P2;Temp;Humidity;BMP_temperature;BMP_pressure;BME280_temperature;BME280_humidity;BME280_pressure;Samples;Min_cycle;Max_cycle;Signal;HPM_P1;HPM_P2
2023/01/03 00:00:43;;;;;;;6.17;2.90;;;10.50;98.90;;;;;;5048703;28;20106;-72
2023/01/03 00:03:08;;;;;;;5.47;2.70;;;10.50;98.80;;;;;;5048582;28;20029;-72
2023/01/03 00:05:34;;;;;;;3.90;2.23;;;10.50;98.80;;;;;;5048588;28;20029;-72
2023/01/03 00:08:00;;;;;;;4.80;2.65;;;10.40;98.60;;;;;;5048419;28;20025;-72
2023/01/03 00:10:27;;;;;;;5.50;2.67;;;10.40;98.60;;;;;;5048831;28;20037;-72
2023/01/03 00:12:53;;;;;;;5.55;2.60;;;10.40;98.60;;;;;;5048191;28;20048;-72
2023/01/03 00:15:19;;;;;;;5.13;3.47;;;10.40;98.50;;;;;;5048265;28;20024;-72
2023/01/03 00:17:44;;;;;;;4.67;3.13;;;10.30;98.70;;;;;;5048237;28;20048;-72
2023/01/03 00:20:10;;;;;;;4.80;3.77;;;10.40;98.60;;;;;;5048125;28;20116;-72
2023/01/03 00:22:36;;;;;;;6.30;4.32;;;10.30;98.60;;;;;;5048380;28;20448;-72
2023/01/03 00:25:02;;;;;;;7.40;4.47;;;10.30;98.60;;;;;;5048141;28;20036;-72
2023/01/03 00:27:28;;;;;;;6.93;4.65;;;10.30;98.60;;;;;;5048519;28;20477;-72
2023/01/03 00:29:53;;;;;;;4.33;2.90;;;10.20;98.70;;;;;;5048167;28;20047;-72
2023/01/03 00:32:19;;;;;;;4.67;3.53;;;10.30;98.40;;;;;;5048562;28;20041;-72
2023/01/03 00:34:45;;;;;;;5.63;3.33;;;10.20;98.50;;;;;;5049029;28;20061;-72
2023/01/03 00:37:12;;;;;;;;;;;10.30;98.60;;;;;;5048322;28;20116;-72
2023/01/03 00:39:37;;;;;;;7.10;4.30;;;10.30;98.50;;;;;;5048115;28;19927;-72
2023/01/03 00:42:03;;;;;;;7.53;3.90;;;10.30;98.60;;;;;;5048117;28;20737;-72
2023/01/03 00:44:28;;;;;;;6.43;3.50;;;10.20;98.60;;;;;;5048323;28;20071;-72
2023/01/03 00:46:54;;;;;;;5.47;3.27;;;10.20;98.70;;;;;;5051769;28;20033;-72
2023/01/03 00:49:20;;;;;;;4.47;2.70;;;10.30;98.60;;;;;;5051912;28;20493;-72
2023/01/03 00:51:46;;;;;;;9.30;3.17;;;10.30;98.60;;;;;;5052011;28;20487;-72
2023/01/03 00:54:13;;;;;;;4.60;3.23;;;10.30;98.40;;;;;;5051415;28;20282;-72
2023/01/03 00:56:42;;;;;;;7.85;4.55;;;10.30;98.50;;;;;;5051622;28;20344;-72
2023/01/03 00:59:08;;;;;;;10.18;6.13;;;10.30;98.40;;;;;;5051618;28;20484;-72
2023/01/03 01:01:38;;;;;;;;;;;10.30;98.30;;;;;;5052490;28;20091;-72
2023/01/03 01:04:20;;;;;;;8.77;6.03;;;10.30;98.30;;;;;;5051957;28;19912;-72
2023/01/03 01:06:54;;;;;;;8.48;5.85;;;10.30;98.50;;;;;;5052219;28;20029;-72
2023/01/03 01:09:22;;;;;;;7.78;5.35;;;10.30;98.50;;;;;;5051712;28;20052;-72
2023/01/03 01:11:49;;;;;;;6.97;5.13;;;10.30;98.50;;;;;;5050370;28;20388;-72
2023/01/03 01:14:19;;;;;;;7.00;5.05;;;10.30;98.50;;;;;;5048524;28;20017;-72
2023/01/03 01:17:01;;;;;;;9.32;4.68;;;10.30;98.40;;;;;;5051941;28;20029;-72
2023/01/03 01:19:34;;;;;;;6.45;4.47;;;10.30;98.50;;;;;;5051605;28;20033;-72
2023/01/03 01:21:59;;;;;;;7.18;4.88;;;10.20;98.60;;;;;;5051496;28;20603;-72
2023/01/03 01:24:25;;;;;;;8.40;5.20;;;10.20;98.80;;;;;;5051363;28;20112;-72
2023/01/03 01:26:51;;;;;;;9.30;5.35;;;10.20;98.80;;;;;;5051216;28;20439;-72
2023/01/03 01:29:17;;;;;;;9.68;6.25;;;10.20;98.80;;;;;;5050935;28;20353;-72
2023/01/03 01:31:44;;;;;;;8.20;5.17;;;10.20;98.80;;;;;;5050938;28;20411;-72
2023/01/03 01:34:10;;;;;;;8.23;5.85;;;10.20;98.80;;;;;;5050989;28;20064;-72
2023/01/03 01:36:38;;;;;;;10.88;5.72;;;10.20;98.90;;;;;;5050954;28;20055;-72
2023/01/03 01:39:07;;;;;;;8.18;5.38;;;10.20;98.80;;;;;;5050637;28;20037;-72
2023/01/03 01:44:46;;;;;;;7.85;4.60;;;10.30;98.60;;;;;;5031124;28;20103;-72
2023/01/03 01:47:18;;;;;;;6.15;4.78;;;10.30;98.40;;;;;;5030677;28;20112;-72
2023/01/03 01:49:47;;;;;;;6.40;4.47;;;10.20;98.50;;;;;;5030938;28;20097;-72
2023/01/03 01:52:15;;;;;;;6.40;4.40;;;10.20;98.30;;;;;;5030336;28;20045;-72
2023/01/03 01:54:41;;;;;;;8.40;4.07;;;10.10;98.50;;;;;;5030032;28;20068;-72
2023/01/03 01:57:11;;;;;;;7.80;3.95;;;10.20;98.50;;;;;;5028889;28;20064;-73
2023/01/03 01:59:36;;;;;;;7.25;3.80;;;10.20;98.70;;;;;;5030514;28;20519;-72
2023/01/03 02:02:02;;;;;;;6.67;4.00;;;10.10;98.70;;;;;;5030353;28;20109;-72
2023/01/03 02:04:32;;;;;;;4.77;3.40;;;10.00;98.90;;;;;;5030223;28;20029;-72
2023/01/03 02:06:59;;;;;;;5.70;3.42;;;10.10;98.90;;;;;;5030098;28;20033;-72
2023/01/03 02:09:25;;;;;;;6.95;3.13;;;10.10;98.80;;;;;;5030166;28;20025;-72
2023/01/03 02:15:10;;;;;;;4.63;2.95;;;10.00;98.50;;;;;;5030388;28;20035;-72
2023/01/03 02:17:45;;;;;;;4.40;2.78;;;10.00;98.70;;;;;;5030230;28;20083;-72
2023/01/03 02:20:33;;;;;;;3.75;2.38;;;10.10;98.60;;;;;;5030553;28;20104;-72
2023/01/03 02:23:01;;;;;;;3.72;2.10;;;10.00;98.50;;;;;;5029922;28;20022;-72
2023/01/03 02:25:45;;;;;;;3.60;2.22;;;10.00;98.20;;;;;;5029799;28;20029;-72
2023/01/03 02:28:42;;;;;;;4.82;2.80;;;10.00;98.40;;;;;;5030101;28;20094;-72
2023/01/03 02:31:14;;;;;;;3.42;2.03;;;10.00;98.30;;;;;;5030008;28;20037;-72
2023/01/03 02:33:52;;;;;;;3.00;2.00;;;10.10;98.80;;;;;;5030244;28;20083;-72
2023/01/03 02:36:36;;;;;;;10.05;2.75;;;10.00;98.60;;;;;;5030118;28;20044;-72
2023/01/03 02:39:08;;;;;;;7.57;2.15;;;10.00;98.40;;;;;;5029169;28;20045;-72
2023/01/03 02:41:45;;;;;;;8.15;2.33;;;10.00;98.40;;;;;;5029813;28;20501;-72
2023/01/03 02:44:26;;;;;;;8.27;2.00;;;10.00;98.30;;;;;;5028415;28;20059;-72
2023/01/03 02:47:02;;;;;;;4.40;2.05;;;10.00;98.30;;;;;;5029492;28;20114;-72
2023/01/03 02:49:41;;;;;;;3.70;1.70;;;10.00;98.00;;;;;;5029204;28;20036;-72
2023/01/03 02:52:13;;;;;;;2.58;1.50;;;9.90;98.10;;;;;;5028987;28;20022;-72
2023/01/03 02:54:46;;;;;;;2.17;1.80;;;10.00;98.10;;;;;;5028963;28;20040;-72
2023/01/03 02:57:18;;;;;;;1.95;1.75;;;9.90;98.30;;;;;;5029355;28;20068;-72
2023/01/03 02:59:49;;;;;;;2.25;1.60;;;9.90;98.30;;;;;;5029486;28;20052;-72
2023/01/03 03:02:18;;;;;;;2.92;1.45;;;10.00;98.20;;;;;;5029378;28;20029;-72
2023/01/03 03:04:46;;;;;;;3.60;1.55;;;9.90;98.30;;;;;;5030746;28;20026;-73
2023/01/03 03:07:19;;;;;;;2.35;1.80;;;9.90;98.40;;;;;;5029495;28;20044;-72
2023/01/03 03:15:21;;;;;;;2.63;2.03;;;10.00;98.30;;;;;;5028929;28;20442;-72
2023/01/03 03:17:50;;;;;;;4.18;2.00;;;9.90;98.30;;;;;;5029303;28;20025;-72
2023/01/03 03:26:14;;;;;;;2.92;2.10;;;9.90;99.00;;;;;;4958619;28;20047;-72
2023/01/03 03:28:46;;;;;;;3.03;2.30;;;9.80;98.90;;;;;;5029032;28;20065;-72
2023/01/03 03:31:39;;;;;;;3.58;2.58;;;9.80;99.00;;;;;;5028690;28;20043;-72
2023/01/03 03:34:17;;;;;;;4.95;2.80;;;9.80;98.90;;;;;;5027418;28;20436;-73
2023/01/03 03:36:53;;;;;;;5.93;3.40;;;9.90;98.80;;;;;;5034773;28;20029;-72
2023/01/03 03:45:09;;;;;;;11.40;5.80;;;10.00;98.60;;;;;;5048961;28;20059;-72
2023/01/03 03:47:53;;;;;;;19.15;9.73;;;10.00;98.60;;;;;;5049064;28;20488;-72
2023/01/03 03:50:31;;;;;;;15.65;6.97;;;10.00;98.60;;;;;;5049139;28;20025;-72
2023/01/03 03:53:00;;;;;;;11.75;4.43;;;9.90;98.70;;;;;;5048628;28;20079;-73
2023/01/03 03:55:50;;;;;;;6.90;3.80;;;10.00;98.70;;;;;;5048917;28;20075;-72
2023/01/03 03:58:20;;;;;;;4.47;3.03;;;10.00;98.70;;;;;;5048550;28;20044;-73
2023/01/03 04:00:50;;;;;;;3.92;3.38;;;9.90;98.80;;;;;;5048466;28;20082;-72
2023/01/03 04:03:18;;;;;;;4.55;3.15;;;10.00;98.80;;;;;;5047006;28;20086;-72
2023/01/03 04:05:56;;;;;;;11.10;9.68;;;10.00;98.50;;;;;;5048433;28;20036;-72
2023/01/03 04:08:22;;;;;;;6.35;3.88;;;9.90;98.80;;;;;;5048420;28;20020;-72
2023/01/03 04:10:48;;;;;;;8.17;3.60;;;10.00;98.80;;;;;;5048740;28;20028;-72
2023/01/03 04:13:14;;;;;;;;;;;9.90;98.90;;;;;;5049010;28;20033;-73
2023/01/03 04:15:39;;;;;;;10.00;5.45;;;10.00;98.80;;;;;;5048633;28;20426;-72
2023/01/03 04:18:05;;;;;;;6.00;3.80;;;10.00;99.00;;;;;;5048070;28;20048;-72
2023/01/03 04:20:31;;;;;;;5.22;4.07;;;9.90;98.80;;;;;;5049475;28;20025;-72
2023/01/03 04:22:56;;;;;;;6.07;4.30;;;10.00;98.90;;;;;;5052265;28;20044;-72
2023/01/03 04:25:22;;;;;;;10.30;6.50;;;10.00;98.90;;;;;;5052481;28;20072;-72
2023/01/03 04:27:48;;;;;;;16.23;10.27;;;10.00;98.80;;;;;;5051971;28;20029;-72
2023/01/03 04:30:13;;;;;;;7.60;4.57;;;10.00;98.80;;;;;;5051774;28;20041;-72
2023/01/03 04:32:39;;;;;;;5.30;3.75;;;10.00;98.80;;;;;;5051941;28;20039;-72
2023/01/03 04:35:05;;;;;;;16.17;12.23;;;10.00;98.80;;;;;;5051927;28;20508;-72
2023/01/03 04:37:31;;;;;;;13.65;9.88;;;9.90;98.90;;;;;;5052041;28;20029;-72
2023/01/03 04:39:57;;;;;;;12.25;8.00;;;9.90;98.80;;;;;;5051851;28;20412;-72
2023/01/03 04:45:07;;;;;;;6.93;4.38;;;9.90;98.80;;;;;;5051646;28;20044;-72
2023/01/03 04:47:33;;;;;;;5.53;4.18;;;9.90;99.00;;;;;;5050048;28;20550;-72
2023/01/03 04:49:58;;;;;;;5.40;4.23;;;9.90;98.90;;;;;;5052091;28;20053;-72
2023/01/03 04:52:24;;;;;;;4.93;3.77;;;9.90;98.90;;;;;;5052212;28;20112;-72
2023/01/03 04:54:49;;;;;;;14.53;8.87;;;9.90;98.90;;;;;;5051784;28;20025;-72
2023/01/03 04:57:15;;;;;;;7.30;4.87;;;9.90;98.80;;;;;;5048039;28;20404;-72
2023/01/03 04:59:41;;;;;;;6.60;4.00;;;9.80;98.80;;;;;;5052040;28;20601;-72
2023/01/03 05:02:06;;;;;;;5.27;4.20;;;9.90;98.90;;;;;;5051702;28;20040;-72
2023/01/03 05:04:32;;;;;;;6.13;4.47;;;9.90;98.90;;;;;;5051231;28;20036;-72
2023/01/03 05:06:57;;;;;;;7.17;4.30;;;9.90;98.90;;;;;;5050931;28;20488;-72
2023/01/03 05:09:25;;;;;;;8.80;5.00;;;9.90;98.90;;;;;;5051441;28;20087;-72
2023/01/03 05:11:51;;;;;;;5.97;4.50;;;9.90;98.80;;;;;;5051367;28;20048;-72
2023/01/03 05:14:16;;;;;;;6.50;4.50;;;9.90;98.90;;;;;;5051359;28;20571;-72
2023/01/03 05:16:42;;;;;;;9.70;6.30;;;9.90;98.90;;;;;;5050923;28;20104;-73
2023/01/03 05:19:07;;;;;;;6.30;4.70;;;9.90;99.10;;;;;;5050626;28;20037;-72
2023/01/03 05:27:22;;;;;;;11.50;6.88;;;9.80;99.00;;;;;;5009141;28;20034;-72
2023/01/03 05:29:51;;;;;;;8.27;5.45;;;9.90;98.90;;;;;;5009230;28;20033;-72
2023/01/03 05:32:17;;;;;;;10.15;6.28;;;9.90;98.80;;;;;;5018881;28;20404;-72
2023/01/03 05:34:42;;;;;;;9.17;6.47;;;9.90;99.00;;;;;;5050862;28;20020;-72
2023/01/03 05:37:08;;;;;;;9.13;5.80;;;9.90;99.10;;;;;;5050573;28;20032;-72
2023/01/03 05:39:33;;;;;;;9.27;6.40;;;9.80;99.10;;;;;;5050945;28;20040;-72
2023/01/03 05:41:59;;;;;;;12.83;6.20;;;9.80;99.40;;;;;;5050638;28;20124;-72
2023/01/03 05:44:29;;;;;;;7.50;5.97;;;9.70;99.60;;;;;;5050911;28;20044;-72
2023/01/03 05:46:56;;;;;;;12.45;6.30;;;9.70;99.50;;;;;;5050709;28;20028;-72
2023/01/03 05:49:21;;;;;;;9.52;6.13;;;9.60;99.90;;;;;;5050335;28;20082;-73
2023/01/03 05:51:47;;;;;;;8.10;6.33;;;9.70;99.40;;;;;;5050886;28;20071;-72
2023/01/03 05:54:14;;;;;;;10.57;7.33;;;9.70;99.20;;;;;;5050011;28;20028;-72
2023/01/03 05:56:40;;;;;;;10.48;6.95;;;9.80;99.00;;;;;;5050126;28;20079;-73
2023/01/03 05:59:06;;;;;;;13.03;7.67;;;9.80;99.10;;;;;;5050578;28;20037;-72
2023/01/03 06:01:32;;;;;;;;;;;9.80;99.20;;;;;;5050493;28;20060;-72
2023/01/03 06:03:58;;;;;;;11.85;7.75;;;9.80;99.30;;;;;;5050183;28;19947;-72
2023/01/03 06:06:24;;;;;;;14.10;7.13;;;9.90;99.10;;;;;;5050473;28;20032;-72
2023/01/03 06:08:49;;;;;;;9.60;6.10;;;9.80;99.00;;;;;;5049865;28;20028;-72
2023/01/03 06:11:16;;;;;;;8.87;6.40;;;9.80;98.90;;;;;;5050307;28;20074;-73
2023/01/03 06:13:41;;;;;;;12.68;7.53;;;9.90;98.90;;;;;;5050324;28;20029;-72
2023/01/03 06:18:54;;;;;;;9.53;6.27;;;9.90;99.20;;;;;;5049394;28;20521;-72
2023/01/03 06:21:20;;;;;;;7.93;5.73;;;9.80;99.40;;;;;;5050058;28;20108;-73
2023/01/03 06:23:48;;;;;;;10.70;6.73;;;9.80;99.20;;;;;;5050008;28;20031;-72
2023/01/03 06:26:18;;;;;;;8.40;5.93;;;9.80;99.00;;;;;;5048706;28;20271;-72
2023/01/03 06:28:44;;;;;;;8.63;6.35;;;9.60;99.70;;;;;;5049650;28;20025;-72
2023/01/03 06:31:10;;;;;;;13.18;6.85;;;9.60;99.80;;;;;;5048645;28;20071;-72
2023/01/03 06:33:36;;;;;;;15.25;6.57;;;9.80;99.60;;;;;;5050274;28;20060;-72
2023/01/03 06:36:08;;;;;;;21.05;11.27;;;9.80;99.30;;;;;;5049530;28;20037;-72
2023/01/03 06:38:34;;;;;;;20.63;12.70;;;9.60;99.70;;;;;;5049315;28;20032;-72
2023/01/03 06:41:00;;;;;;;19.33;11.50;;;9.60;99.90;;;;;;5049589;28;20514;-72
2023/01/03 06:43:26;;;;;;;15.43;9.10;;;9.70;99.70;;;;;;5048985;28;20051;-72
2023/01/03 06:54:06;;;;;;;27.45;13.48;;;9.80;99.00;;;;;;5029614;28;20064;-72
2023/01/03 06:56:32;;;;;;;43.58;23.88;;;9.80;99.10;;;;;;5029601;28;20044;-72
2023/01/03 06:58:58;;;;;;;26.10;13.40;;;9.80;99.10;;;;;;5029840;28;20509;-72
2023/01/03 07:01:23;;;;;;;20.13;12.03;;;9.80;99.00;;;;;;5029264;28;20080;-72
2023/01/03 07:03:49;;;;;;;30.27;17.03;;;9.80;99.10;;;;;;5029363;28;20026;-72
2023/01/03 07:06:15;;;;;;;21.33;13.50;;;9.80;99.10;;;;;;5029658;28;20806;-72
2023/01/03 07:08:40;;;;;;;19.38;11.40;;;9.80;99.20;;;;;;5029636;28;20040;-72
2023/01/03 07:11:06;;;;;;;18.30;9.23;;;9.80;99.20;;;;;;5029459;28;20033;-72
2023/01/03 07:16:18;;;;;;;18.40;10.93;;;9.80;99.40;;;;;;5029305;28;20539;-72
2023/01/03 07:18:44;;;;;;;29.33;15.90;;;9.80;99.30;;;;;;5029205;28;20048;-72
2023/01/03 07:21:10;;;;;;;17.67;10.27;;;9.80;99.30;;;;;;5028810;28;20029;-72
2023/01/03 07:23:36;;;;;;;19.02;11.85;;;9.80;99.40;;;;;;5028968;28;20699;-72
2023/01/03 07:26:02;;;;;;;17.40;9.63;;;9.80;99.40;;;;;;5029493;28;20027;-72
2023/01/03 07:28:28;;;;;;;12.30;9.07;;;9.80;99.40;;;;;;5028748;28;20492;-72
2023/01/03 07:30:59;;;;;;;12.67;8.13;;;9.70;99.30;;;;;;5028426;28;20534;-72
2023/01/03 07:33:24;;;;;;;13.25;7.68;;;9.70;99.30;;;;;;5028647;28;20034;-72
2023/01/03 07:35:50;;;;;;;10.63;7.23;;;9.70;99.40;;;;;;5028980;28;20460;-72
2023/01/03 07:38:16;;;;;;;8.10;6.27;;;9.70;99.20;;;;;;5028459;28;20046;-72
2023/01/03 07:40:41;;;;;;;7.33;5.37;;;9.70;99.20;;;;;;5037252;28;20041;-72
2023/01/03 07:45:55;;;;;;;;;;;9.70;98.90;;;;;;5049486;28;20044;-72
2023/01/03 07:48:20;;;;;;;11.93;5.70;;;9.70;98.80;;;;;;5048359;28;19909;-72
2023/01/03 07:50:46;;;;;;;9.27;5.90;;;9.70;99.10;;;;;;5048216;28;20028;-72
2023/01/03 07:53:17;;;;;;;8.23;6.07;;;9.70;98.90;;;;;;5047195;28;20481;-72
2023/01/03 07:55:46;;;;;;;11.43;6.97;;;9.70;99.00;;;;;;5050453;28;20573;-72
2023/01/03 07:58:12;;;;;;;7.57;5.50;;;9.70;99.00;;;;;;5052263;28;20108;-72
2023/01/03 08:00:39;;;;;;;10.20;5.97;;;9.70;99.00;;;;;;5052292;28;20116;-72
2023/01/03 08:03:05;;;;;;;10.80;7.07;;;9.70;98.90;;;;;;5052671;28;20086;-72
2023/01/03 08:05:31;;;;;;;11.27;5.90;;;9.70;98.90;;;;;;5052337;28;20020;-72
2023/01/03 08:07:57;;;;;;;9.98;6.30;;;9.70;98.90;;;;;;5052218;28;20617;-72
2023/01/03 08:13:17;;;;;;;11.52;5.88;;;9.80;98.80;;;;;;5052113;28;20036;-72
2023/01/03 08:15:47;;;;;;;6.38;4.88;;;9.80;98.60;;;;;;5052774;28;20416;-72
2023/01/03 08:18:13;;;;;;;9.52;5.63;;;9.80;98.60;;;;;;5051839;28;20037;-72
2023/01/03 08:20:38;;;;;;;8.15;5.35;;;9.70;98.60;;;;;;5052550;28;20830;-72
2023/01/03 08:23:04;;;;;;;6.33;4.80;;;9.80;98.60;;;;;;5053091;28;20452;-72
2023/01/03 08:25:30;;;;;;;5.60;4.20;;;9.70;98.30;;;;;;5052091;28;20412;-72
2023/01/03 08:27:59;;;;;;;7.07;3.77;;;9.80;98.20;;;;;;5052217;28;20393;-72
2023/01/03 08:30:27;;;;;;;6.22;3.85;;;9.90;98.00;;;;;;5051420;28;20359;-72
2023/01/03 08:32:54;;;;;;;6.72;3.97;;;9.90;98.00;;;;;;5050678;28;20454;-73
2023/01/03 08:35:22;;;;;;;7.13;4.70;;;10.00;97.90;;;;;;5049426;28;20044;-72
2023/01/03 08:37:48;;;;;;;5.55;3.47;;;10.00;97.60;;;;;;5050261;28;20107;-72
2023/01/03 08:40:16;;;;;;;;;;;10.10;97.80;;;;;;5050973;28;20029;-72
2023/01/03 08:42:43;;;;;;;4.50;3.33;;;10.20;97.40;;;;;;5050678;28;20294;-72
2023/01/03 08:45:11;;;;;;;;;;;10.20;97.40;;;;;;5050914;28;20032;-72
2023/01/03 08:47:37;;;;;;;5.15;3.90;;;10.30;97.10;;;;;;5050434;28;20288;-72
2023/01/03 08:50:03;;;;;;;4.75;3.33;;;10.40;97.00;;;;;;5050927;28;20382;-72
2023/01/03 08:52:29;;;;;;;8.80;4.60;;;10.50;97.20;;;;;;5050527;28;20060;-72
2023/01/03 08:54:55;;;;;;;6.22;4.85;;;10.60;96.60;;;;;;5046032;28;20489;-72
2023/01/03 08:57:20;;;;;;;6.80;3.90;;;10.90;96.80;;;;;;5030394;28;20032;-72
2023/01/03 08:59:46;;;;;;;5.83;3.90;;;10.90;96.20;;;;;;5030718;28;20679;-72
2023/01/03 09:02:11;;;;;;;7.43;3.93;;;10.90;96.00;;;;;;5030605;28;20478;-72
2023/01/03 09:04:37;;;;;;;4.53;3.70;;;10.80;96.00;;;;;;5030204;28;20037;-72
2023/01/03 09:07:03;;;;;;;6.70;3.50;;;10.90;95.80;;;;;;5030062;28;20100;-72
2023/01/03 09:09:28;;;;;;;8.43;3.07;;;10.90;95.70;;;;;;5030512;28;20477;-72
2023/01/03 09:11:54;;;;;;;6.63;4.07;;;11.00;95.30;;;;;;5030090;28;20493;-72
2023/01/03 09:14:19;;;;;;;5.73;3.60;;;11.00;95.70;;;;;;5030524;28;20168;-72
2023/01/03 09:16:45;;;;;;;8.83;3.63;;;11.00;95.40;;;;;;5030041;28;20037;-72
2023/01/03 09:19:11;;;;;;;12.57;8.23;;;11.00;95.50;;;;;;5041171;28;20040;-72
2023/01/03 09:21:36;;;;;;;13.80;7.03;;;10.90;95.70;;;;;;5050038;28;20563;-72
2023/01/03 09:24:02;;;;;;;6.17;3.53;;;10.90;95.60;;;;;;5049164;28;20029;-73
2023/01/03 09:26:28;;;;;;;7.93;3.37;;;10.90;96.00;;;;;;5050083;28;20029;-71
2023/01/03 09:28:54;;;;;;;5.30;3.15;;;10.90;96.00;;;;;;5050407;28;20392;-72
2023/01/03 09:31:19;;;;;;;8.23;4.90;;;10.90;95.80;;;;;;5010659;28;1122218;-72
2023/01/03 09:33:45;;;;;;;14.93;8.07;;;11.00;95.80;;;;;;5050878;28;20093;-73
2023/01/03 09:36:10;;;;;;;9.87;6.00;;;11.10;95.80;;;;;;5050710;28;20529;-71
2023/01/03 09:38:36;;;;;;;7.10;3.33;;;11.10;95.70;;;;;;5050948;28;20033;-72
2023/01/03 09:41:10;;;;;;;4.07;2.80;;;11.00;95.50;;;;;;5047188;28;20028;-68
2023/01/03 09:43:42;;;;;;;14.55;6.88;;;11.00;95.40;;;;;;5047153;28;20367;-68
2023/01/03 09:46:17;;;;;;;17.48;8.82;;;11.00;95.50;;;;;;5045200;28;20036;-68
2023/01/03 09:48:43;;;;;;;28.00;11.50;;;11.00;95.50;;;;;;5046158;28;20550;-68
2023/01/03 10:05:49;;;;;;;3.22;2.15;;;11.00;94.90;;;;;;5030455;28;20035;-69
2023/01/03 10:08:36;;;;;;;3.58;2.25;;;11.00;94.10;;;;;;5047496;28;20035;-70
2023/01/03 10:11:12;;;;;;;3.92;2.58;;;11.00;95.00;;;;;;5050532;28;20473;-69
2023/01/03 10:13:53;;;;;;;3.00;2.13;;;11.10;94.90;;;;;;5049578;28;20503;-68
2023/01/03 10:16:23;;;;;;;4.40;3.00;;;11.10;94.80;;;;;;5043682;28;20029;-68
2023/01/03 10:18:48;;;;;;;14.18;6.88;;;11.20;94.90;;;;;;5029332;28;20037;-70
2023/01/03 10:21:24;;;;;;;2.63;2.27;;;11.30;94.90;;;;;;5040166;28;20041;-68
2023/01/03 10:23:52;;;;;;;4.38;2.42;;;11.30;94.70;;;;;;5047707;28;20501;-70
2023/01/03 10:26:18;;;;;;;7.60;3.75;;;11.30;94.70;;;;;;5049277;28;20495;-69
2023/01/03 10:28:45;;;;;;;6.70;2.70;;;11.30;94.80;;;;;;5048074;28;20037;-70
2023/01/03 10:31:16;;;;;;;3.50;2.60;;;11.40;94.50;;;;;;5044759;28;20064;-70
2023/01/03 10:33:46;;;;;;;8.10;5.10;;;11.40;94.60;;;;;;5046789;28;20396;-71
2023/01/03 10:36:14;;;;;;;8.80;3.85;;;11.40;94.70;;;;;;5045073;28;20017;-69
2023/01/03 10:38:41;;;;;;;6.72;2.75;;;11.50;94.70;;;;;;5050363;28;20033;-68
2023/01/03 10:41:45;;;;;;;3.47;2.35;;;11.50;94.60;;;;;;5047770;28;20029;-71
2023/01/03 10:44:31;;;;;;;4.10;2.65;;;11.50;94.50;;;;;;5047049;28;20512;-71
2023/01/03 10:47:14;;;;;;;5.72;2.58;;;11.50;94.40;;;;;;5049921;28;20025;-71
2023/01/03 10:49:44;;;;;;;4.63;3.05;;;11.60;94.50;;;;;;5049911;28;20052;-70
2023/01/03 10:52:16;;;;;;;10.60;6.15;;;11.60;94.80;;;;;;5050152;28;20060;-70
2023/01/03 10:54:48;;;;;;;6.60;3.40;;;11.60;94.70;;;;;;5046272;28;20523;-70
2023/01/03 10:57:34;;;;;;;6.93;3.22;;;11.60;94.60;;;;;;5046609;28;20032;-70
2023/01/03 10:59:59;;;;;;;4.97;3.17;;;11.80;94.70;;;;;;5046705;28;20028;-70
2023/01/03 11:02:25;;;;;;;13.17;6.47;;;11.80;94.20;;;;;;5046492;28;20037;-69
2023/01/03 11:05:11;;;;;;;6.50;4.87;;;11.90;94.40;;;;;;5042514;28;20102;-70
2023/01/03 11:07:43;;;;;;;9.35;4.15;;;12.00;94.20;;;;;;5028677;28;20033;-69
2023/01/03 11:10:15;;;;;;;6.75;3.95;;;12.10;93.90;;;;;;5029440;28;20104;-69
2023/01/03 11:12:41;;;;;;;5.60;3.22;;;12.30;94.40;;;;;;5029735;28;20038;-69
2023/01/03 11:15:31;;;;;;;7.57;4.77;;;12.40;93.70;;;;;;5029186;28;20029;-69
2023/01/03 11:18:03;;;;;;;6.05;3.83;;;12.50;93.40;;;;;;5029212;28;20429;-69
2023/01/03 11:20:38;;;;;;;6.05;2.88;;;12.60;93.10;;;;;;5028011;28;20478;-69
2023/01/03 11:23:14;;;;;;;5.57;3.00;;;12.60;93.10;;;;;;5027853;28;20449;-69
2023/01/03 11:26:03;;;;;;;13.98;7.82;;;12.50;93.00;;;;;;5029820;28;20531;-69
2023/01/03 11:28:53;;;;;;;6.80;3.45;;;12.70;93.00;;;;;;5029310;28;20025;-69
2023/01/03 11:31:46;;;;;;;3.67;2.53;;;12.50;93.10;;;;;;5029336;28;20033;-70
2023/01/03 11:34:29;;;;;;;7.22;2.53;;;12.60;92.30;;;;;;5029591;28;20113;-69
2023/01/03 11:37:14;;;;;;;9.18;4.40;;;12.70;93.10;;;;;;5029179;28;20037;-69
2023/01/03 11:40:03;;;;;;;5.40;3.60;;;12.80;93.20;;;;;;5029370;28;20049;-69
2023/01/03 11:42:35;;;;;;;3.78;2.00;;;13.00;92.30;;;;;;5029141;28;20026;-69
2023/01/03 11:45:28;;;;;;;1.70;1.60;;;12.90;91.20;;;;;;5029351;28;20029;-70
2023/01/03 11:48:31;;;;;;;7.72;1.88;;;13.10;91.30;;;;;;5045445;28;20021;-69
2023/01/03 11:51:33;;;;;;;3.75;2.75;;;13.20;91.00;;;;;;5043808;28;20389;-68
2023/01/03 11:54:16;;;;;;;2.75;2.10;;;13.20;90.80;;;;;;5047427;28;20032;-69
2023/01/03 11:56:48;;;;;;;3.45;1.75;;;13.20;90.10;;;;;;5048127;28;20036;-69
2023/01/03 11:59:35;;;;;;;3.85;2.13;;;13.20;90.10;;;;;;5048000;28;20063;-69
2023/01/03 12:02:23;;;;;;;1.73;1.33;;;13.40;90.40;;;;;;5047799;28;20044;-70
2023/01/03 12:05:05;;;;;;;2.78;1.33;;;13.40;90.60;;;;;;5046248;28;20048;-69
2023/01/03 12:07:49;;;;;;;2.90;1.20;;;13.30;90.60;;;;;;5047389;28;20036;-69
2023/01/03 12:10:24;;;;;;;2.65;1.23;;;13.30;90.10;;;;;;5048121;28;20033;-69
2023/01/03 12:12:59;;;;;;;4.53;1.23;;;13.00;89.90;;;;;;5047065;28;20040;-69
2023/01/03 12:15:27;;;;;;;1.90;1.30;;;13.00;90.00;;;;;;5047612;28;20025;-69
2023/01/03 12:17:59;;;;;;;1.90;1.25;;;13.00;89.90;;;;;;5046603;28;20033;-69
2023/01/03 12:20:41;;;;;;;1.38;1.13;;;13.00;88.80;;;;;;5047957;28;20085;-69
2023/01/03 12:23:38;;;;;;;2.28;1.15;;;13.10;88.50;;;;;;5048026;28;20017;-69
2023/01/03 12:26:08;;;;;;;2.95;1.15;;;13.10;89.20;;;;;;5047538;28;20446;-68
2023/01/03 12:29:02;;;;;;;5.95;1.50;;;13.20;88.90;;;;;;5047265;28;20413;-69
2023/01/03 12:31:54;;;;;;;1.85;1.23;;;13.10;88.40;;;;;;5047484;28;20033;-69
2023/01/03 12:34:41;;;;;;;2.95;1.38;;;13.20;88.20;;;;;;5041409;28;20025;-70
2023/01/03 12:37:35;;;;;;;2.10;1.50;;;13.20;88.40;;;;;;5041868;28;20025;-69
2023/01/03 12:40:03;;;;;;;2.72;1.25;;;13.10;88.70;;;;;;5041122;28;20091;-69
2023/01/03 12:42:31;;;;;;;1.92;1.10;;;13.00;89.80;;;;;;5048648;28;20496;-69
2023/01/03 12:45:22;;;;;;;2.65;1.40;;;13.00;89.70;;;;;;5046712;28;20029;-70
2023/01/03 12:48:08;;;;;;;2.28;1.00;;;13.20;89.90;;;;;;5041905;28;20033;-69
2023/01/03 12:50:41;;;;;;;1.77;1.00;;;13.10;89.60;;;;;;5046527;28;20108;-70
2023/01/03 12:53:26;;;;;;;1.17;0.98;;;13.00;87.30;;;;;;5048271;28;20047;-70
2023/01/03 12:56:03;;;;;;;1.00;0.80;;;13.00;88.60;;;;;;5048556;28;20025;-71
2023/01/03 12:58:53;;;;;;;1.73;0.98;;;13.00;88.30;;;;;;5048876;28;20076;-71
2023/01/03 13:01:28;;;;;;;1.73;0.90;;;13.10;87.20;;;;;;5046340;28;20029;-71
2023/01/03 13:03:59;;;;;;;1.83;0.90;;;13.00;86.70;;;;;;5045367;28;20137;-71
2023/01/03 13:06:35;;;;;;;2.17;1.08;;;12.90;88.80;;;;;;5041211;28;20029;-71
2023/01/03 13:09:10;;;;;;;1.92;1.00;;;12.80;88.90;;;;;;5048507;28;20089;-70
2023/01/03 13:11:51;;;;;;;2.97;1.40;;;12.50;89.10;;;;;;5049380;28;20025;-71
2023/01/03 13:14:27;;;;;;;1.55;1.02;;;12.70;90.10;;;;;;5050111;28;20481;-70
2023/01/03 13:17:05;;;;;;;2.63;2.10;;;12.70;90.20;;;;;;5050283;28;20071;-70
2023/01/03 13:19:34;;;;;;;5.05;2.05;;;12.80;90.20;;;;;;5050400;28;20047;-70
2023/01/03 13:22:17;;;;;;;2.70;1.60;;;12.80;90.10;;;;;;5050205;28;20029;-70
2023/01/03 13:24:50;;;;;;;2.95;1.90;;;12.90;89.60;;;;;;5049025;28;20120;-70
2023/01/03 13:29:57;;;;;;;3.42;1.00;;;12.80;90.10;;;;;;5050334;28;20032;-70
2023/01/03 13:32:22;;;;;;;3.25;1.88;;;12.70;89.40;;;;;;5049023;28;20037;-69
2023/01/03 13:34:57;;;;;;;3.93;1.20;;;12.80;89.30;;;;;;5050114;28;20100;-70
2023/01/03 13:37:26;;;;;;;6.47;2.40;;;12.90;89.40;;;;;;5050035;28;20368;-70
2023/01/03 13:39:51;;;;;;;2.78;1.48;;;12.80;90.00;;;;;;5049586;28;20049;-69
2023/01/03 13:42:29;;;;;;;3.07;1.97;;;12.80;89.80;;;;;;5049967;28;20071;-69
2023/01/03 13:45:16;;;;;;;7.88;2.60;;;12.70;90.00;;;;;;5047506;28;20412;-69
2023/01/03 13:47:46;;;;;;;6.32;2.97;;;12.60;89.60;;;;;;5049985;28;20083;-69
2023/01/03 13:50:28;;;;;;;3.17;1.70;;;12.60;90.40;;;;;;5049915;28;20108;-69
2023/01/03 13:53:02;;;;;;;6.03;2.53;;;12.60;90.20;;;;;;5046432;28;20489;-69
2023/01/03 13:55:46;;;;;;;12.10;3.15;;;12.70;90.30;;;;;;5049229;28;20492;-69
2023/01/03 13:58:36;;;;;;;5.85;2.20;;;12.70;90.10;;;;;;5050132;28;20040;-69
2023/01/03 14:01:05;;;;;;;4.95;2.45;;;12.70;90.00;;;;;;5050213;28;20031;-69
2023/01/03 14:04:00;;;;;;;26.35;13.13;;;12.60;90.20;;;;;;5050364;28;20039;-70
2023/01/03 14:06:43;;;;;;;4.57;1.45;;;12.60;89.70;;;;;;5050027;28;20124;-69
2023/01/03 14:09:18;;;;;;;30.95;15.95;;;12.50;89.20;;;;;;5049899;28;20029;-70
2023/01/03 14:12:12;;;;;;;15.30;8.93;;;12.60;88.90;;;;;;5050274;28;20025;-69
2023/01/03 14:14:40;;;;;;;3.95;3.30;;;12.60;88.60;;;;;;5049139;28;20039;-69
2023/01/03 14:17:18;;;;;;;5.47;0.85;;;12.50;89.40;;;;;;5050039;28;20028;-69